Latest Weather Observations for Yunta

IDS60801

Issued at 10:05 pm CST Wednesday 23 April 2014 (issued every 30 minutes, with the page automatically refreshed every 10 minutes)

About weather observations | Map of weather stations | Latest weather observations for SA | Other Formats
Station Details ID: 020062 Name: YUNTA AIRSTRIP Lat: -32.57 Lon: 139.56 Height: 300.0 m
Data from the previous 72 hours. | See also: Recent months at Yunta
Date/Time
CST
Temp
°C
App
Temp
°C
Dew
Point
Rel
Hum
%
Delta-T
°C
Wind Press
QNH
hPa
Press
MSL
hPa
Rain
since 9 am
mm
Dir
 
Spd
km/h
Gust
km/h
Spd
kts
Gust
kts
23/10:00pm 13.3 11.1 7.7 69 2.8 SW 9 11 5 6 1015.6 - -
23/09:30pm 14.0 11.8 7.8 66 3.1 WSW 9 11 5 6 1015.5 1014.8 -
23/09:00pm 14.9 14.4 7.9 63 3.5 CALM 0 0 0 0 1015.2 1014.6 0.0
23/08:30pm 14.0 13.0 7.3 64 3.3 N 2 2 1 1 1015.1 1014.5 -
23/08:00pm 14.9 14.4 7.7 62 3.6 ENE 0 2 0 1 1015.1 - -
23/07:30pm 16.0 14.3 7.7 58 4.2 S 6 6 3 3 1015.0 1014.4 -
23/07:00pm 16.6 14.8 8.1 57 4.4 SSW 7 11 4 6 1014.7 - -
23/06:30pm 18.6 17.0 8.0 50 5.5 SE 6 7 3 4 1014.2 1013.6 -
23/06:00pm 19.3 17.7 8.0 48 5.9 SSE 6 7 3 4 1013.9 1013.3 -
23/05:30pm 21.3 20.1 8.2 43 7.0 S 4 6 2 3 1013.7 1013.1 -
23/05:00pm 22.4 20.8 7.8 39 7.7 S 6 9 3 5 1013.7 - -
23/04:30pm 22.3 20.5 7.3 38 7.9 SSE 6 9 3 5 1013.4 1012.8 -
23/04:00pm 22.6 21.3 7.6 38 7.9 SE 4 9 2 5 1013.5 - -
23/03:30pm 22.6 20.9 7.6 38 7.9 S 6 11 3 6 1013.7 1013.1 -
23/03:00pm 22.6 20.3 7.6 38 7.9 SSE 9 13 5 7 1013.9 1013.3 -
23/02:30pm 22.8 21.0 8.1 39 7.9 S 7 13 4 7 1014.0 1013.4 -
23/02:00pm 22.1 21.0 7.1 38 7.8 SW 2 7 1 4 1014.2 - -
23/12:30pm 20.5 18.9 7.8 44 6.7 SE 6 11 3 6 1015.3 1014.7 0.0
23/12:00pm 20.3 19.6 7.0 42 6.9 CALM 0 4 0 2 1016.0 1015.4 0.0
23/11:30am 18.8 16.9 6.9 46 6.1 SE 6 11 3 6 1016.6 1016.0 0.0
23/11:00am 18.2 16.2 7.3 49 5.6 SSE 7 13 4 7 1017.0 - 0.0
23/10:30am 17.2 14.8 7.0 51 5.1 SSE 9 15 5 8 1017.3 1016.7 0.0
23/10:00am 16.0 13.7 7.5 57 4.3 SSE 9 13 5 7 1017.6 - 0.0
23/09:30am 14.9 12.6 7.5 61 3.7 SE 9 15 5 8 1017.8 1017.2 0.0
23/09:00am 14.1 12.0 8.1 67 3.0 SE 9 13 5 7 1017.8 1017.2 0.0
23/08:30am 12.8 10.9 7.7 71 2.5 SSE 7 11 4 6 1017.8 1017.2 0.0
23/08:00am 11.4 9.7 7.7 78 1.8 S 6 9 3 5 1017.8 - 0.0
23/07:30am 10.0 8.2 7.3 83 1.3 SW 6 7 3 4 1017.6 1017.0 0.0
23/07:00am 8.9 6.8 6.7 86 1.0 WSW 7 9 4 5 1017.3 - 0.0
23/06:30am 8.6 6.5 6.6 87 0.9 WSW 7 9 4 5 1017.2 1016.6 0.0
23/06:00am 8.7 6.6 6.5 86 1.0 SW 7 7 4 4 1017.2 1016.6 0.0
23/05:30am 8.8 6.6 6.4 85 1.1 SW 7 9 4 5 1017.2 1016.6 0.0
23/05:00am 9.1 7.0 6.5 84 1.2 SW 7 9 4 5 1017.2 - 0.0
23/04:30am 9.5 7.5 6.9 84 1.2 SW 7 9 4 5 1017.2 1016.6 0.0
23/04:00am 9.7 7.8 6.8 82 1.4 SW 6 7 3 4 1017.0 - 0.0
23/03:30am 10.1 8.0 6.6 79 1.7 SSW 7 7 4 4 1017.2 1016.6 0.0
23/03:00am 10.6 8.7 6.6 76 1.9 SSW 6 7 3 4 1017.3 1016.7 0.0
23/02:30am 11.4 9.4 6.9 74 2.2 SSW 7 9 4 5 1017.5 1016.9 0.0
23/02:00am 12.3 9.5 7.0 70 2.6 S 11 15 6 8 1017.5 - 0.0
23/01:30am 12.6 10.2 7.1 69 2.7 S 9 13 5 7 1017.6 1017.0 0.0
23/01:00am 13.2 10.4 7.0 66 3.0 S 11 17 6 9 1017.7 - 0.0
23/12:30am 13.4 10.7 7.4 67 3.0 S 11 15 6 8 1017.6 1017.0 0.0
23/12:00am 13.9 11.3 7.7 66 3.1 S 11 15 6 8 1017.5 1016.9 0.0
 
Date/Time
CST
Temp
°C
App
Temp
°C
Dew
Point
Rel
Hum
%
Delta-T
°C
Wind Press
QNH
hPa
Press
MSL
hPa
Rain
since 9 am
mm
Dir
 
Spd
km/h
Gust
km/h
Spd
kts
Gust
kts
22/11:30pm 14.7 11.8 8.0 64 3.4 S 13 19 7 10 1017.6 1017.0 0.0
22/11:00pm 15.5 12.3 8.5 63 3.6 S 15 20 8 11 1017.4 - 0.0
22/10:30pm 16.0 13.4 9.4 65 3.5 SSE 13 19 7 10 1017.6 1017.0 0.0
22/10:00pm 16.3 13.8 9.7 65 3.5 S 13 17 7 9 1017.9 - 0.0
22/09:30pm 16.9 14.9 10.3 65 3.5 S 11 15 6 8 1017.7 1017.1 0.0
22/09:00pm 17.3 15.5 10.7 65 3.6 S 11 17 6 9 1017.4 1016.8 0.0
22/08:30pm 18.1 15.9 10.7 62 4.0 SSE 13 20 7 11 1017.1 1016.5 0.0
22/08:00pm 18.1 16.0 11.0 63 3.9 SSE 13 22 7 12 1017.1 - 0.0
22/07:30pm 18.6 15.8 11.2 62 4.1 SSE 17 24 9 13 1016.7 1016.1 0.0
22/07:00pm 18.9 16.0 11.0 60 4.4 SSE 17 24 9 13 1016.4 - 0.0
22/06:30pm 19.6 16.7 10.9 57 4.8 S 17 28 9 15 1016.1 1015.5 0.0
22/06:00pm 20.3 17.7 10.7 54 5.3 S 15 20 8 11 1015.6 1014.9 0.0
22/05:30pm 21.1 17.9 11.2 53 5.5 S 19 24 10 13 1015.2 1014.6 0.0
22/05:00pm 22.2 18.4 11.3 50 6.1 S 22 30 12 16 1014.9 - 0.0
22/04:30pm 23.1 19.3 11.2 47 6.7 S 22 30 12 16 1014.6 1014.0 0.0
22/04:00pm 23.9 20.4 10.9 44 7.3 S 20 30 11 16 1014.3 - 0.0
22/03:30pm 25.1 21.5 10.6 40 8.2 S 20 30 11 16 1014.0 1013.4 0.0
22/03:00pm 28.8 21.7 1.3 17 13.5 W 28 39 15 21 1013.6 1013.0 0.0
22/02:30pm 28.9 21.8 1.4 17 13.5 WNW 28 39 15 21 1013.6 1013.0 0.0
22/02:00pm 28.2 20.7 0.9 17 13.3 WNW 30 39 16 21 1013.6 - 0.0
22/01:30pm 28.2 20.2 1.7 18 13.1 WNW 33 44 18 24 1013.8 1013.2 0.0
22/01:00pm 28.1 19.7 1.6 18 13.0 WNW 35 50 19 27 1014.0 - 0.0
22/12:30pm 27.8 20.3 1.3 18 12.9 WNW 30 50 16 27 1014.4 1013.8 0.0
22/12:00pm 27.5 20.3 3.2 21 12.2 WNW 30 44 16 24 1014.8 1014.2 0.0
22/11:30am 26.9 18.7 2.7 21 12.0 NW 35 48 19 26 1015.1 1014.5 0.0
22/11:00am 26.4 18.8 3.0 22 11.7 NW 32 43 17 23 1015.6 - 0.0
22/10:30am 25.7 18.5 3.0 23 11.2 NW 30 41 16 22 1015.9 1015.3 0.0
22/10:00am 25.3 20.3 4.4 26 10.6 NW 20 32 11 17 1016.2 - 0.0
22/09:30am 23.5 20.1 5.9 32 9.1 NNW 13 17 7 9 1016.6 1016.0 0.0
22/09:00am 21.6 18.1 7.1 39 7.5 NNW 15 19 8 10 1016.5 1015.9 0.0
22/08:30am 20.0 15.6 6.4 41 6.9 N 19 22 10 12 1016.2 1015.6 0.0
22/08:00am 18.4 14.0 6.6 46 6.0 NNW 19 22 10 12 1015.9 - 0.0
22/07:30am 17.4 12.8 6.3 48 5.5 NNW 20 24 11 13 1015.3 1014.7 0.0
22/07:00am 16.4 11.7 6.2 51 5.0 N 20 24 11 13 1015.0 - 0.0
22/06:30am 16.0 11.5 6.2 52 4.8 NNW 19 22 10 12 1014.7 1014.1 0.0
22/06:00am 16.9 12.1 5.8 48 5.5 N 20 26 11 14 1014.5 1013.9 0.0
22/05:30am 17.1 12.4 6.0 48 5.5 N 20 26 11 14 1014.3 1013.7 0.0
22/05:00am 17.2 11.7 5.8 47 5.6 N 24 28 13 15 1014.3 - 0.0
22/04:30am 17.4 12.3 6.0 47 5.7 N 22 28 12 15 1014.3 1013.7 0.0
22/04:00am 17.2 12.6 5.8 47 5.6 NNW 19 24 10 13 1014.2 - 0.0
22/03:30am 16.5 12.4 6.3 51 5.1 N 17 20 9 11 1014.1 1013.5 0.0
22/03:00am 17.2 12.7 6.1 48 5.5 N 19 24 10 13 1014.1 1013.5 0.0
22/02:30am 18.2 12.7 6.1 45 6.0 N 24 30 13 16 1014.2 1013.6 0.0
22/02:00am 18.2 13.2 6.4 46 5.9 N 22 28 12 15 1014.1 - 0.0
22/01:30am 18.2 13.2 6.4 46 5.9 N 22 28 12 15 1014.4 1013.8 0.0
22/01:00am 18.2 13.8 6.4 46 5.9 N 19 22 10 12 1014.5 - 0.0
22/12:30am 18.2 13.8 6.4 46 5.9 N 19 24 10 13 1014.7 1014.1 0.0
22/12:00am 18.3 14.3 6.8 47 5.8 N 17 20 9 11 1015.0 1014.4 0.0
 
Date/Time
CST
Temp
°C
App
Temp
°C
Dew
Point
Rel
Hum
%
Delta-T
°C
Wind Press
QNH
hPa
Press
MSL
hPa
Rain
since 9 am
mm
Dir
 
Spd
km/h
Gust
km/h
Spd
kts
Gust
kts
21/11:30pm 18.6 14.6 6.8 46 6.0 N 17 20 9 11 1015.1 1014.5 0.0
21/11:00pm 18.8 14.9 6.9 46 6.1 N 17 20 9 11 1015.3 - 0.0
21/10:30pm 18.4 14.5 7.2 48 5.7 N 17 19 9 10 1015.6 1014.9 0.0
21/10:00pm 18.4 14.6 7.5 49 5.6 N 17 19 9 10 1015.8 - 0.0
21/09:30pm 18.5 15.5 7.6 49 5.6 N 13 17 7 9 1015.9 1015.3 0.0
21/09:00pm 18.5 15.5 7.6 49 5.6 N 13 15 7 8 1015.9 1015.3 0.0
21/08:30pm 19.0 15.9 7.4 47 6.0 N 13 15 7 8 1015.8 1015.1 0.0
21/08:00pm 19.6 16.5 7.4 45 6.3 N 13 17 7 9 1015.7 - 0.0
21/07:30pm 20.2 17.5 7.2 43 6.7 N 11 13 6 7 1015.6 1014.9 0.0
21/07:00pm 21.1 18.0 7.3 41 7.2 N 13 15 7 8 1015.5 - 0.0
21/06:30pm 21.7 18.6 7.2 39 7.6 N 13 15 7 8 1015.2 1014.6 0.0
21/06:00pm 23.2 20.0 6.9 35 8.5 N 13 17 7 9 1015.1 1014.5 0.0
21/05:30pm 24.2 20.2 6.5 32 9.3 N 17 22 9 12 1015.0 1014.4 0.0
21/05:00pm 25.2 20.8 6.4 30 9.9 N 19 28 10 15 1014.8 - 0.0
21/04:30pm 25.4 20.3 6.1 29 10.1 N 22 33 12 18 1014.8 1014.2 0.0
21/04:00pm 25.7 20.2 5.8 28 10.4 N 24 32 13 17 1014.7 - 0.0
21/03:30pm 26.8 21.0 6.2 27 10.9 N 26 33 14 18 1014.7 1014.1 0.0
21/03:00pm 26.0 20.5 6.1 28 10.4 N 24 33 13 18 1014.8 1014.2 0.0
21/02:30pm 26.0 20.1 5.6 27 10.6 N 26 35 14 19 1014.9 1014.3 0.0
21/02:00pm 26.6 20.4 6.1 27 10.8 NNW 28 37 15 20 1015.1 - 0.0
21/01:40pm 26.9 20.7 6.3 27 10.9 NNW 28 50 15 27 1015.2 - 0.0
21/01:30pm 26.3 19.9 5.3 26 10.9 NNW 28 37 15 20 1015.3 1014.7 0.0
21/01:00pm 26.1 19.4 5.7 27 10.6 N 30 41 16 22 1015.9 - 0.0
21/12:30pm 25.3 19.1 6.0 29 10.1 N 28 39 15 21 1016.4 1015.8 0.0
21/12:00pm 24.4 18.2 6.2 31 9.5 N 28 37 15 20 1016.9 1016.3 0.0
21/11:30am 23.5 16.9 5.9 32 9.1 N 30 41 16 22 1017.4 1016.8 0.0
21/11:00am 23.4 17.0 7.1 35 8.6 N 30 41 16 22 1017.8 - 0.0
21/10:30am 22.1 16.4 6.7 37 8.0 N 26 37 14 20 1018.0 1017.4 0.0
21/10:00am 20.2 14.1 6.5 41 7.0 N 28 39 15 21 1018.2 - 0.0
21/09:30am 19.2 13.5 6.7 44 6.4 N 26 33 14 18 1018.3 1017.7 0.0
21/09:00am 17.9 12.6 7.0 49 5.5 N 24 32 13 17 1018.4 1017.8 0.0
21/08:30am 16.9 10.8 6.7 51 5.1 N 28 35 15 19 1018.4 1017.8 0.0
21/08:00am 16.0 9.9 6.7 54 4.6 N 28 32 15 17 1018.1 - 0.0
21/07:30am 15.3 10.0 6.6 56 4.3 N 24 30 13 16 1017.9 1017.3 0.0
21/07:00am 14.6 11.3 6.4 58 4.0 N 13 19 7 10 1017.8 - 0.0
21/06:30am 14.2 10.9 6.6 60 3.7 NNE 13 17 7 9 1017.9 1017.3 0.0
21/06:00am 12.3 9.0 6.4 67 2.8 N 13 15 7 8 1017.9 1017.3 0.0
21/05:30am 12.3 9.0 6.6 68 2.8 N 13 17 7 9 1017.9 1017.3 0.0
21/05:00am 12.0 9.5 6.5 69 2.7 N 9 13 5 7 1018.0 - 0.0
21/04:30am 12.8 11.9 6.2 64 3.2 CALM 0 6 0 3 1017.9 1017.3 0.0
21/04:00am 11.4 9.6 5.5 67 2.8 N 4 6 2 3 1017.7 - 0.0
21/03:30am 12.6 11.3 6.0 64 3.2 NW 2 4 1 2 1017.8 1017.2 0.0
21/03:00am 14.9 12.3 6.2 56 4.3 NE 9 13 5 7 1017.7 1017.1 0.0
21/02:30am 14.3 12.3 6.2 58 3.9 NE 6 13 3 7 1017.7 1017.1 0.0
21/02:00am 13.6 12.0 6.2 61 3.6 NNE 4 7 2 4 1017.8 - 0.0
21/01:30am 13.9 11.4 6.5 61 3.6 N 9 13 5 7 1018.0 1017.4 0.0
21/01:00am 13.1 11.7 7.1 67 3.0 NE 4 11 2 6 1018.2 - 0.0
21/12:30am 11.2 9.6 6.3 72 2.3 SSE 4 6 2 3 1018.2 1017.6 0.0
21/12:00am 11.6 10.8 6.7 72 2.4 CALM 0 0 0 0 1018.4 1017.8 0.0
 
Date/Time
CST
Temp
°C
App
Temp
°C
Dew
Point
Rel
Hum
%
Delta-T
°C
Wind Press
QNH
hPa
Press
MSL
hPa
Rain
since 9 am
mm
Dir
 
Spd
km/h
Gust
km/h
Spd
kts
Gust
kts
20/11:30pm 11.8 11.0 6.5 70 2.5 CALM 0 0 0 0 1018.6 1018.0 0.0
20/11:00pm 12.5 11.7 6.5 67 2.9 CALM 0 0 0 0 1018.8 - 0.0
20/10:30pm 12.7 11.9 6.7 67 2.9 CALM 0 0 0 0 1019.0 1018.4 0.0

Other Formats:

Comma delimited format used in spreadsheet applications
http://www.bom.gov.au/fwo/IDS60801/IDS60801.94684.axf

JavaScript Object Notation format (JSON) in row-major order
http://www.bom.gov.au/fwo/IDS60801/IDS60801.94684.json